Time;durP1;ratioP1;P1;durP2;ratioP2;P2;SDS_P1;SDS_P2;PMS_P1;PMS_P2;Temp;Humidity;BMP_temperature;BMP_pressure;BME280_temperature;BME280_humidity;BME280_pressure;Samples;Min_cycle;Max_cycle;Signal;HPM_P1;HPM_P2
2022/03/27 00:01:25;;;;;;;9.13;3.80;;;;;;;;;;6186705;23;20059;-88
2022/03/27 00:03:51;;;;;;;6.88;3.47;;;;;;;;;;6186156;23;20009;-88
2022/03/27 00:06:17;;;;;;;6.85;3.70;;;;;;;;;;6160071;23;20347;-89
2022/03/27 00:08:43;;;;;;;7.75;4.20;;;;;;;;;;6159802;23;20017;-88
2022/03/27 00:11:25;;;;;;;7.75;3.90;;;;;;;;;;6160144;23;20071;-89
2022/03/27 00:13:54;;;;;;;9.60;4.28;;;;;;;;;;6159834;23;20020;-88
2022/03/27 00:16:20;;;;;;;9.18;3.92;;;;;;;;;;6160000;23;20044;-88
2022/03/27 00:18:47;;;;;;;7.93;3.70;;;;;;;;;;6159816;23;20048;-88
2022/03/27 00:21:13;;;;;;;7.88;3.50;;;;;;;;;;6160004;23;20016;-88
2022/03/27 00:23:40;;;;;;;9.25;4.22;;;;;;;;;;6159540;23;20148;-89
2022/03/27 00:26:06;;;;;;;6.35;3.55;;;;;;;;;;6159939;23;20044;-89
2022/03/27 00:28:33;;;;;;;7.72;4.53;;;;;;;;;;6159686;23;20438;-88
2022/03/27 00:31:04;;;;;;;8.70;3.95;;;;;;;;;;6159875;23;20013;-89
2022/03/27 00:33:30;;;;;;;7.03;3.65;;;;;;;;;;6159580;23;20016;-88
2022/03/27 00:35:56;;;;;;;8.23;3.75;;;;;;;;;;6159757;23;20021;-87
2022/03/27 00:38:22;;;;;;;7.78;3.75;;;;;;;;;;6159581;23;20013;-88
2022/03/27 00:40:51;;;;;;;9.23;4.00;;;;;;;;;;6159725;23;20051;-89
2022/03/27 00:43:18;;;;;;;6.72;3.70;;;;;;;;;;6185763;23;20450;-87
2022/03/27 00:45:44;;;;;;;7.70;3.55;;;;;;;;;;6159630;23;20092;-88
2022/03/27 00:48:11;;;;;;;9.95;3.83;;;;;;;;;;6159427;23;20017;-87
2022/03/27 00:50:37;;;;;;;9.02;4.07;;;;;;;;;;6159594;23;20116;-88
2022/03/27 00:53:03;;;;;;;8.52;3.75;;;;;;;;;;6159135;23;20044;-87
2022/03/27 00:55:29;;;;;;;11.07;4.40;;;;;;;;;;6185970;23;20027;-89
2022/03/27 00:57:55;;;;;;;8.50;4.20;;;;;;;;;;6159354;23;20084;-88
2022/03/27 01:00:46;;;;;;;9.95;4.05;;;;;;;;;;6159620;23;20024;-89
2022/03/27 01:03:16;;;;;;;8.73;4.10;;;;;;;;;;6159262;23;20044;-88
2022/03/27 01:05:43;;;;;;;12.15;4.18;;;;;;;;;;6186123;23;20013;-88
2022/03/27 01:08:10;;;;;;;10.63;4.10;;;;;;;;;;6159350;23;20092;-88
2022/03/27 01:10:37;;;;;;;7.25;3.70;;;;;;;;;;6159516;23;20013;-88
2022/03/27 01:13:04;;;;;;;10.85;3.90;;;;;;;;;;6185606;23;20067;-89
2022/03/27 01:15:49;;;;;;;7.90;4.30;;;;;;;;;;6159507;23;20016;-88
2022/03/27 01:18:15;;;;;;;9.32;4.03;;;;;;;;;;6159154;23;20417;-88
2022/03/27 01:20:42;;;;;;;9.82;4.20;;;;;;;;;;6159385;23;20017;-89
2022/03/27 01:23:09;;;;;;;8.48;4.00;;;;;;;;;;6185749;23;20020;-88
2022/03/27 01:25:36;;;;;;;10.88;4.10;;;;;;;;;;6159296;23;20024;-88
2022/03/27 01:28:02;;;;;;;9.90;4.28;;;;;;;;;;6159118;23;20043;-88
2022/03/27 01:30:28;;;;;;;9.68;4.18;;;;;;;;;;6159258;23;20461;-87
2022/03/27 01:32:55;;;;;;;11.90;4.65;;;;;;;;;;6158982;23;20017;-89
2022/03/27 01:35:21;;;;;;;11.88;4.68;;;;;;;;;;6186035;23;20498;-88
2022/03/27 01:37:48;;;;;;;10.48;4.00;;;;;;;;;;6185745;23;20024;-87
2022/03/27 01:40:14;;;;;;;9.95;4.60;;;;;;;;;;6159212;23;20020;-87
2022/03/27 01:42:40;;;;;;;10.93;4.30;;;;;;;;;;6185482;23;20017;-88
2022/03/27 01:45:06;;;;;;;11.50;4.40;;;;;;;;;;6185517;23;20017;-88
2022/03/27 01:47:33;;;;;;;12.10;4.40;;;;;;;;;;6184164;23;20087;-87
2022/03/27 01:50:01;;;;;;;10.75;4.05;;;;;;;;;;6185702;23;20012;-88
2022/03/27 01:52:27;;;;;;;10.93;4.57;;;;;;;;;;6185125;23;20013;-89
2022/03/27 01:54:53;;;;;;;12.05;4.68;;;;;;;;;;6158884;23;20067;-87
2022/03/27 01:57:19;;;;;;;13.02;5.05;;;;;;;;;;6159044;23;20088;-89
2022/03/27 01:59:45;;;;;;;14.50;5.28;;;;;;;;;;6158824;23;20043;-88
2022/03/27 02:02:11;;;;;;;11.50;4.70;;;;;;;;;;6184164;23;20386;-89
2022/03/27 02:04:37;;;;;;;15.82;4.85;;;;;;;;;;6185468;23;20092;-88
2022/03/27 02:07:03;;;;;;;10.13;4.50;;;;;;;;;;6158851;23;20028;-88
2022/03/27 02:09:29;;;;;;;11.80;4.75;;;;;;;;;;6158788;23;20012;-88
2022/03/27 02:11:55;;;;;;;14.20;5.43;;;;;;;;;;6158871;23;20076;-87
2022/03/27 02:14:21;;;;;;;12.63;5.70;;;;;;;;;;6185405;23;20073;-89
2022/03/27 02:16:47;;;;;;;13.80;5.70;;;;;;;;;;6158733;23;20442;-88
2022/03/27 02:19:13;;;;;;;12.40;5.30;;;;;;;;;;6158657;23;20473;-88
2022/03/27 02:21:41;;;;;;;12.07;5.82;;;;;;;;;;6158835;23;20384;-88
2022/03/27 02:24:08;;;;;;;11.15;5.43;;;;;;;;;;6184852;23;20013;-88
2022/03/27 02:26:34;;;;;;;14.38;5.90;;;;;;;;;;6185443;23;20013;-88
2022/03/27 02:29:00;;;;;;;11.48;6.18;;;;;;;;;;6158508;23;20469;-89
2022/03/27 02:31:26;;;;;;;15.05;6.60;;;;;;;;;;6185557;23;20013;-90
2022/03/27 02:33:52;;;;;;;16.55;6.32;;;;;;;;;;6158536;23;20513;-88
2022/03/27 02:36:18;;;;;;;15.55;6.53;;;;;;;;;;6158728;23;20020;-88
2022/03/27 02:38:44;;;;;;;15.15;6.32;;;;;;;;;;6158543;23;20384;-88
2022/03/27 02:41:10;;;;;;;13.20;6.60;;;;;;;;;;6158833;23;20060;-88
2022/03/27 02:43:39;;;;;;;16.20;6.90;;;;;;;;;;6158467;23;20044;-89
2022/03/27 02:46:05;;;;;;;19.27;7.03;;;;;;;;;;6158622;23;20013;-88
2022/03/27 02:48:32;;;;;;;21.23;7.20;;;;;;;;;;6158490;23;20338;-88
2022/03/27 02:50:58;;;;;;;16.98;6.88;;;;;;;;;;6158596;23;20016;-89
2022/03/27 02:53:24;;;;;;;22.17;7.50;;;;;;;;;;6158135;23;20017;-88
2022/03/27 02:55:50;;;;;;;18.45;7.13;;;;;;;;;;6158632;23;20442;-88
2022/03/27 02:58:16;;;;;;;18.55;6.75;;;;;;;;;;6184830;23;20071;-88
2022/03/27 03:00:42;;;;;;;21.10;7.00;;;;;;;;;;6158739;23;20303;-88
2022/03/27 03:03:09;;;;;;;17.13;6.68;;;;;;;;;;6158520;23;20476;-88
2022/03/27 03:05:36;;;;;;;21.48;6.53;;;;;;;;;;6158333;23;20017;-88
2022/03/27 03:08:02;;;;;;;15.48;5.93;;;;;;;;;;6185288;23;20017;-88
2022/03/27 03:10:31;;;;;;;17.65;5.57;;;;;;;;;;6158426;23;20009;-88
2022/03/27 03:12:58;;;;;;;18.83;5.40;;;;;;;;;;6158456;23;20024;-88
2022/03/27 03:15:24;;;;;;;20.50;6.65;;;;;;;;;;6158293;23;20080;-89
2022/03/27 03:17:50;;;;;;;18.63;6.20;;;;;;;;;;6158539;23;20517;-88
2022/03/27 03:20:17;;;;;;;13.98;5.50;;;;;;;;;;6158277;23;20338;-87
2022/03/27 03:22:43;;;;;;;16.33;5.97;;;;;;;;;;6158473;23;20020;-89
2022/03/27 03:25:09;;;;;;;13.00;5.63;;;;;;;;;;6158293;23;20316;-88
2022/03/27 03:27:36;;;;;;;18.25;5.35;;;;;;;;;;6158368;23;20017;-88
2022/03/27 03:30:02;;;;;;;15.18;5.65;;;;;;;;;;6160135;23;20009;-88
2022/03/27 03:32:28;;;;;;;14.93;5.97;;;;;;;;;;6160360;23;20324;-87
2022/03/27 03:34:54;;;;;;;14.63;5.18;;;;;;;;;;6160273;23;20040;-88
2022/03/27 03:37:20;;;;;;;20.92;6.18;;;;;;;;;;6160370;23;20460;-87
2022/03/27 03:39:47;;;;;;;14.35;5.28;;;;;;;;;;6186864;23;20017;-88
2022/03/27 03:42:13;;;;;;;15.48;5.30;;;;;;;;;;6160298;23;20023;-87
2022/03/27 03:44:39;;;;;;;16.80;5.57;;;;;;;;;;6160141;23;20469;-88
2022/03/27 03:47:05;;;;;;;20.30;5.88;;;;;;;;;;6160324;23;20089;-88
2022/03/27 03:49:31;;;;;;;17.55;5.25;;;;;;;;;;6160126;23;20017;-88
2022/03/27 03:51:57;;;;;;;17.70;6.30;;;;;;;;;;6160022;23;20016;-88
2022/03/27 03:54:23;;;;;;;16.50;5.65;;;;;;;;;;6159985;23;20051;-88
2022/03/27 03:56:49;;;;;;;13.98;4.88;;;;;;;;;;6160223;23;20009;-88
2022/03/27 03:59:15;;;;;;;14.90;5.63;;;;;;;;;;6186633;23;20460;-88
2022/03/27 04:01:41;;;;;;;13.48;5.65;;;;;;;;;;6160234;23;20096;-88
2022/03/27 04:04:07;;;;;;;15.75;5.90;;;;;;;;;;6186490;23;20036;-89
2022/03/27 04:06:33;;;;;;;11.85;6.20;;;;;;;;;;6160095;23;20037;-87
2022/03/27 04:08:59;;;;;;;17.05;6.57;;;;;;;;;;6186578;23;20017;-87
2022/03/27 04:11:25;;;;;;;18.77;7.05;;;;;;;;;;6160699;23;20143;-87
2022/03/27 04:13:51;;;;;;;19.42;7.43;;;;;;;;;;6160011;23;20016;-88
2022/03/27 04:16:17;;;;;;;34.40;8.18;;;;;;;;;;6159877;23;20045;-88
2022/03/27 04:18:43;;;;;;;23.38;6.93;;;;;;;;;;6185274;23;20449;-89
2022/03/27 04:21:09;;;;;;;50.22;9.52;;;;;;;;;;6186056;23;20451;-88
2022/03/27 04:23:36;;;;;;;42.40;8.15;;;;;;;;;;6159827;23;20071;-88
2022/03/27 04:26:03;;;;;;;24.98;7.30;;;;;;;;;;6159698;23;20088;-89
2022/03/27 04:28:29;;;;;;;113.47;9.55;;;;;;;;;;6159911;23;20020;-88
2022/03/27 04:30:55;;;;;;;53.00;8.20;;;;;;;;;;6159707;23;20013;-88
2022/03/27 04:33:21;;;;;;;57.45;7.97;;;;;;;;;;6159631;23;20013;-88
2022/03/27 04:35:47;;;;;;;43.13;8.15;;;;;;;;;;6159659;23;20024;-89
2022/03/27 04:38:14;;;;;;;42.67;6.95;;;;;;;;;;6159872;23;20454;-89
2022/03/27 04:40:40;;;;;;;88.85;8.88;;;;;;;;;;6159315;23;20051;-88
2022/03/27 04:43:06;;;;;;;64.50;9.15;;;;;;;;;;6159731;23;20020;-87
2022/03/27 04:45:32;;;;;;;77.75;8.55;;;;;;;;;;6159488;23;20469;-89
2022/03/27 04:47:58;;;;;;;63.40;8.38;;;;;;;;;;6159717;23;20013;-88
2022/03/27 04:50:24;;;;;;;94.40;10.45;;;;;;;;;;6159462;23;20028;-88
2022/03/27 04:52:50;;;;;;;71.38;9.23;;;;;;;;;;6185958;23;20465;-88
2022/03/27 04:55:16;;;;;;;105.00;10.48;;;;;;;;;;6159508;23;20017;-87
2022/03/27 04:57:43;;;;;;;106.00;9.93;;;;;;;;;;6159634;23;20023;-88
2022/03/27 05:00:10;;;;;;;78.95;9.77;;;;;;;;;;6159469;23;20052;-88
2022/03/27 05:02:37;;;;;;;65.32;10.57;;;;;;;;;;6159433;23;20091;-88
2022/03/27 05:05:04;;;;;;;63.05;9.40;;;;;;;;;;6159302;23;20043;-88
2022/03/27 05:07:30;;;;;;;89.55;11.30;;;;;;;;;;6159572;23;20102;-88
2022/03/27 05:09:56;;;;;;;64.43;9.80;;;;;;;;;;6159273;23;20009;-88
2022/03/27 05:12:22;;;;;;;51.88;8.73;;;;;;;;;;6159577;23;20036;-89
2022/03/27 05:14:48;;;;;;;42.30;8.90;;;;;;;;;;6159238;23;20438;-88
2022/03/27 05:17:14;;;;;;;55.28;9.85;;;;;;;;;;6159310;23;20017;-88
2022/03/27 05:19:41;;;;;;;17.20;7.43;;;;;;;;;;6159205;23;20021;-89
2022/03/27 05:22:07;;;;;;;24.27;7.60;;;;;;;;;;6159359;23;20021;-88
2022/03/27 05:24:33;;;;;;;26.80;7.40;;;;;;;;;;6159816;23;20465;-88
2022/03/27 05:26:59;;;;;;;24.90;8.05;;;;;;;;;;6185807;23;20071;-89
2022/03/27 05:29:25;;;;;;;19.70;7.53;;;;;;;;;;6159498;23;20013;-89
2022/03/27 05:31:54;;;;;;;16.55;6.55;;;;;;;;;;6185353;23;20012;-89
2022/03/27 05:34:20;;;;;;;18.90;6.35;;;;;;;;;;6185632;23;20013;-88
2022/03/27 05:36:46;;;;;;;15.65;7.13;;;;;;;;;;6158991;23;20477;-88
2022/03/27 05:39:13;;;;;;;13.73;6.97;;;;;;;;;;6159362;23;20040;-89
2022/03/27 05:41:39;;;;;;;16.50;6.82;;;;;;;;;;6158956;23;20575;-89
2022/03/27 05:44:05;;;;;;;15.73;7.07;;;;;;;;;;6159205;23;20474;-89
2022/03/27 05:46:31;;;;;;;13.43;5.93;;;;;;;;;;6158500;23;20013;-88
2022/03/27 05:48:57;;;;;;;14.77;6.28;;;;;;;;;;6158732;23;20071;-89
2022/03/27 05:51:23;;;;;;;15.98;6.55;;;;;;;;;;6158151;23;20028;-88
2022/03/27 05:53:49;;;;;;;17.00;5.85;;;;;;;;;;6158529;23;20358;-87
2022/03/27 05:56:15;;;;;;;17.98;6.25;;;;;;;;;;6158482;23;20107;-88
2022/03/27 05:58:41;;;;;;;15.77;5.93;;;;;;;;;;6158535;23;20040;-87
2022/03/27 06:01:07;;;;;;;17.25;6.00;;;;;;;;;;6158529;23;20021;-88
2022/03/27 06:03:33;;;;;;;15.02;5.88;;;;;;;;;;6158350;23;20442;-88
2022/03/27 06:05:59;;;;;;;17.02;6.03;;;;;;;;;;6158305;23;20025;-88
2022/03/27 06:08:25;;;;;;;15.60;6.15;;;;;;;;;;6184804;23;20091;-87
2022/03/27 06:10:51;;;;;;;18.42;5.70;;;;;;;;;;6184824;23;20017;-87
2022/03/27 06:13:19;;;;;;;16.77;5.85;;;;;;;;;;6158598;23;20023;-88
2022/03/27 06:15:46;;;;;;;18.30;5.78;;;;;;;;;;6183362;23;20013;-89
2022/03/27 06:18:12;;;;;;;19.10;6.28;;;;;;;;;;6158535;23;20434;-88
2022/03/27 06:20:40;;;;;;;18.13;6.72;;;;;;;;;;6158290;23;20446;-87
2022/03/27 06:23:06;;;;;;;21.95;6.18;;;;;;;;;;6184943;23;20047;-87
2022/03/27 06:25:32;;;;;;;22.33;6.25;;;;;;;;;;6158049;23;20020;-88
2022/03/27 06:27:59;;;;;;;23.95;6.75;;;;;;;;;;6158259;23;20068;-89
2022/03/27 06:30:26;;;;;;;19.27;5.93;;;;;;;;;;6158191;23;20312;-88
2022/03/27 06:32:53;;;;;;;25.13;7.88;;;;;;;;;;6158080;23;20116;-88
2022/03/27 06:35:19;;;;;;;23.58;7.28;;;;;;;;;;6158186;23;20017;-88
2022/03/27 06:37:46;;;;;;;29.38;6.55;;;;;;;;;;6158046;23;20058;-88
2022/03/27 06:40:13;;;;;;;25.48;5.80;;;;;;;;;;6158353;23;20021;-88
2022/03/27 06:42:39;;;;;;;23.15;5.88;;;;;;;;;;6157715;23;20447;-88
2022/03/27 06:45:05;;;;;;;28.13;7.25;;;;;;;;;;6158186;23;20020;-88
2022/03/27 06:47:32;;;;;;;26.83;6.82;;;;;;;;;;6158076;23;20120;-88
2022/03/27 06:49:58;;;;;;;29.70;6.65;;;;;;;;;;6158486;23;20013;-88
2022/03/27 06:52:26;;;;;;;27.77;6.53;;;;;;;;;;6157845;23;20055;-88
2022/03/27 06:54:52;;;;;;;32.05;6.57;;;;;;;;;;6158242;23;20032;-87
2022/03/27 06:57:18;;;;;;;25.00;6.30;;;;;;;;;;6158120;23;20017;-88
2022/03/27 07:05:14;;;;;;;30.58;8.48;;;;;;;;;;6187268;23;20021;-89
2022/03/27 07:07:41;;;;;;;27.30;6.53;;;;;;;;;;6160350;23;20206;-88
2022/03/27 07:10:07;;;;;;;31.65;7.97;;;;;;;;;;6161693;23;20013;-88
2022/03/27 07:12:33;;;;;;;45.00;8.00;;;;;;;;;;6160234;23;20315;-89
2022/03/27 07:14:59;;;;;;;33.67;6.40;;;;;;;;;;6186955;23;20111;-88
2022/03/27 07:17:25;;;;;;;32.92;7.05;;;;;;;;;;6160270;23;20020;-88
2022/03/27 07:19:52;;;;;;;31.05;7.15;;;;;;;;;;6160537;23;20401;-88
2022/03/27 07:22:18;;;;;;;38.92;7.25;;;;;;;;;;6160058;23;20021;-89
2022/03/27 07:24:45;;;;;;;37.67;7.97;;;;;;;;;;6185237;23;20450;-89
2022/03/27 07:27:12;;;;;;;36.72;8.48;;;;;;;;;;6160042;23;20040;-89
2022/03/27 07:29:38;;;;;;;38.00;8.13;;;;;;;;;;6160356;23;20017;-88
2022/03/27 07:32:05;;;;;;;35.50;9.00;;;;;;;;;;6160074;23;20016;-89
2022/03/27 07:34:31;;;;;;;41.92;8.57;;;;;;;;;;6186311;23;20009;-87
2022/03/27 07:36:57;;;;;;;44.28;10.20;;;;;;;;;;6160093;23;20017;-88
2022/03/27 07:39:23;;;;;;;40.00;9.00;;;;;;;;;;6160340;23;20017;-88
2022/03/27 07:41:49;;;;;;;37.35;8.63;;;;;;;;;;6186590;23;20041;-88
2022/03/27 07:44:15;;;;;;;36.53;8.75;;;;;;;;;;6160272;23;20017;-88
2022/03/27 07:46:41;;;;;;;34.55;8.75;;;;;;;;;;6159895;23;20013;-88
2022/03/27 07:49:08;;;;;;;39.28;9.38;;;;;;;;;;6185083;23;20013;-88
2022/03/27 07:51:34;;;;;;;42.72;9.70;;;;;;;;;;6186182;23;20516;-88
2022/03/27 07:54:00;;;;;;;33.20;9.32;;;;;;;;;;6160120;23;20052;-89
2022/03/27 07:56:26;;;;;;;36.47;9.90;;;;;;;;;;6160083;23;20025;-88
2022/03/27 07:58:52;;;;;;;36.13;9.32;;;;;;;;;;6160210;23;20075;-89
2022/03/27 08:01:18;;;;;;;38.80;9.30;;;;;;;;;;6186628;23;20312;-88
2022/03/27 08:03:45;;;;;;;37.08;8.95;;;;;;;;;;6160055;23;20518;-88
2022/03/27 08:06:11;;;;;;;36.13;8.60;;;;;;;;;;6160128;23;20087;-91
2022/03/27 08:08:37;;;;;;;39.53;9.35;;;;;;;;;;6159836;23;20099;-88
2022/03/27 08:11:04;;;;;;;34.28;9.45;;;;;;;;;;6187528;23;20017;-88
2022/03/27 08:13:29;;;;;;;36.50;9.63;;;;;;;;;;6159456;23;20055;-88
2022/03/27 08:15:55;;;;;;;41.05;9.52;;;;;;;;;;6159837;23;20028;-88
2022/03/27 08:18:21;;;;;;;36.83;9.30;;;;;;;;;;6159804;23;20017;-87
2022/03/27 08:20:47;;;;;;;36.85;9.90;;;;;;;;;;6186308;23;20459;-88
2022/03/27 08:23:13;;;;;;;40.85;9.18;;;;;;;;;;6186393;23;20013;-89
2022/03/27 08:28:24;;;;;;;32.97;9.07;;;;;;;;;;6163925;23;20021;-89
2022/03/27 08:30:50;;;;;;;36.20;9.18;;;;;;;;;;6159935;23;20017;-88
2022/03/27 08:33:17;;;;;;;41.35;9.05;;;;;;;;;;6159620;23;20408;-89
2022/03/27 08:35:43;;;;;;;25.92;7.38;;;;;;;;;;6159880;23;20334;-89
2022/03/27 08:38:13;;;;;;;29.33;7.35;;;;;;;;;;6159853;23;20091;-88
2022/03/27 08:40:40;;;;;;;35.80;7.32;;;;;;;;;;6159809;23;20013;-88
2022/03/27 08:43:10;;;;;;;36.58;9.25;;;;;;;;;;6159390;23;20044;-89
2022/03/27 08:45:36;;;;;;;37.75;7.88;;;;;;;;;;6159607;23;20037;-87
2022/03/27 08:48:04;;;;;;;39.88;9.50;;;;;;;;;;6159692;23;20419;-89
2022/03/27 08:50:38;;;;;;;39.50;8.73;;;;;;;;;;6159615;23;20016;-88
2022/03/27 08:53:05;;;;;;;41.10;9.95;;;;;;;;;;6159173;23;20013;-87
2022/03/27 08:55:50;;;;;;;33.83;9.32;;;;;;;;;;6159676;23;20020;-88
2022/03/27 08:58:18;;;;;;;33.22;8.65;;;;;;;;;;6159264;23;20092;-87
2022/03/27 09:00:44;;;;;;;29.13;8.18;;;;;;;;;;6159586;23;20045;-88
2022/03/27 09:03:11;;;;;;;35.45;8.45;;;;;;;;;;6159224;23;20017;-88
2022/03/27 09:05:38;;;;;;;32.75;8.57;;;;;;;;;;6159400;23;20140;-88
2022/03/27 09:08:07;;;;;;;32.80;8.73;;;;;;;;;;6184214;23;20040;-88
2022/03/27 09:10:33;;;;;;;28.75;8.43;;;;;;;;;;6186101;23;20013;-87
2022/03/27 09:13:00;;;;;;;30.67;8.35;;;;;;;;;;6159024;23;20044;-88
2022/03/27 09:15:26;;;;;;;31.20;8.10;;;;;;;;;;6185948;23;20085;-88
2022/03/27 09:18:00;;;;;;;31.13;7.22;;;;;;;;;;6159415;23;20399;-89
2022/03/27 09:20:44;;;;;;;38.42;7.95;;;;;;;;;;6159035;23;20021;-88
2022/03/27 09:23:13;;;;;;;28.48;7.25;;;;;;;;;;6159100;23;20024;-88
2022/03/27 09:25:48;;;;;;;27.20;6.68;;;;;;;;;;6185344;23;20012;-88
2022/03/27 09:28:28;;;;;;;24.58;6.82;;;;;;;;;;6185731;23;20013;-88
2022/03/27 09:30:55;;;;;;;27.95;6.93;;;;;;;;;;6185575;23;20013;-88
2022/03/27 09:33:34;;;;;;;35.38;7.60;;;;;;;;;;6158895;23;20064;-87
2022/03/27 09:36:19;;;;;;;29.33;7.43;;;;;;;;;;6159203;23;20025;-89
2022/03/27 09:38:57;;;;;;;24.15;6.53;;;;;;;;;;6159071;23;20017;-87
2022/03/27 09:41:51;;;;;;;28.50;6.68;;;;;;;;;;6159137;23;20021;-88
2022/03/27 09:44:21;;;;;;;23.35;6.05;;;;;;;;;;6130215;23;20016;-88
2022/03/27 09:46:48;;;;;;;27.10;6.28;;;;;;;;;;6134516;23;20438;-87
2022/03/27 09:49:15;;;;;;;29.98;7.03;;;;;;;;;;6158885;23;20032;-87
2022/03/27 09:51:54;;;;;;;27.10;6.40;;;;;;;;;;6185625;23;20015;-86
2022/03/27 09:54:21;;;;;;;34.05;7.72;;;;;;;;;;6158583;23;20332;-87
2022/03/27 09:56:47;;;;;;;25.52;7.13;;;;;;;;;;6158902;23;20336;-87
2022/03/27 09:59:30;;;;;;;33.13;7.75;;;;;;;;;;6158590;23;20024;-88
2022/03/27 10:02:15;;;;;;;29.60;7.75;;;;;;;;;;6158891;23;20025;-88
2022/03/27 10:04:53;;;;;;;26.98;6.63;;;;;;;;;;6184979;23;20084;-87
2022/03/27 10:07:19;;;;;;;29.23;6.63;;;;;;;;;;6158763;23;20316;-87
2022/03/27 10:09:45;;;;;;;26.90;6.28;;;;;;;;;;6158616;23;20013;-88
2022/03/27 10:12:13;;;;;;;26.50;6.68;;;;;;;;;;6158807;23;20036;-87
2022/03/27 10:14:41;;;;;;;27.25;7.13;;;;;;;;;;6158455;23;20016;-88
2022/03/27 10:17:09;;;;;;;27.83;6.85;;;;;;;;;;6158644;23;20419;-88
2022/03/27 10:19:39;;;;;;;29.75;7.07;;;;;;;;;;6158602;23;20021;-88
2022/03/27 10:22:06;;;;;;;27.17;6.28;;;;;;;;;;6185306;23;20062;-87
2022/03/27 10:24:33;;;;;;;27.20;6.05;;;;;;;;;;6158505;23;20024;-88
2022/03/27 10:27:01;;;;;;;31.60;7.60;;;;;;;;;;6158683;23;20088;-87
2022/03/27 10:29:27;;;;;;;28.25;6.35;;;;;;;;;;6158489;23;20017;-89
2022/03/27 10:31:53;;;;;;;30.42;6.47;;;;;;;;;;6158651;23;20013;-87
2022/03/27 10:34:20;;;;;;;26.70;6.30;;;;;;;;;;6158480;23;20013;-87
2022/03/27 10:36:56;;;;;;;26.02;6.32;;;;;;;;;;6158497;23;20092;-87
2022/03/27 10:39:28;;;;;;;25.15;5.22;;;;;;;;;;6158475;23;20257;-87
2022/03/27 10:42:13;;;;;;;28.58;5.32;;;;;;;;;;6158724;23;20017;-87
2022/03/27 10:44:40;;;;;;;28.83;6.57;;;;;;;;;;6185133;23;20013;-88
2022/03/27 10:47:15;;;;;;;24.67;5.55;;;;;;;;;;6158535;23;20079;-88
2022/03/27 10:50:02;;;;;;;27.15;5.85;;;;;;;;;;6158528;23;20374;-87
2022/03/27 10:52:36;;;;;;;30.15;6.03;;;;;;;;;;6138439;23;20021;-88
2022/03/27 10:55:16;;;;;;;28.10;6.00;;;;;;;;;;6158255;23;20028;-87
2022/03/27 10:57:46;;;;;;;25.33;5.35;;;;;;;;;;6158552;23;20418;-87
2022/03/27 11:00:13;;;;;;;23.42;4.88;;;;;;;;;;6158206;23;20144;-88
2022/03/27 11:02:44;;;;;;;23.38;6.07;;;;;;;;;;6158241;23;20020;-86
2022/03/27 11:05:31;;;;;;;20.02;4.60;;;;;;;;;;6184428;23;20088;-87
2022/03/27 11:08:19;;;;;;;26.15;5.43;;;;;;;;;;6184637;23;20025;-87
2022/03/27 11:10:54;;;;;;;18.67;4.32;;;;;;;;;;6184984;23;20013;-87
2022/03/27 11:13:20;;;;;;;;;;;;;;;;;;6185381;23;20048;-87
2022/03/27 11:16:01;;;;;;;20.60;4.50;;;;;;;;;;6133917;23;19950;-87
2022/03/27 11:18:35;;;;;;;17.50;4.65;;;;;;;;;;6158244;23;20013;-86
2022/03/27 11:21:01;;;;;;;16.17;3.42;;;;;;;;;;6184999;23;20489;-87
2022/03/27 11:23:28;;;;;;;22.67;4.25;;;;;;;;;;6158031;23;20039;-86
2022/03/27 11:25:54;;;;;;;18.13;4.45;;;;;;;;;;6183157;23;20025;-88
2022/03/27 11:28:23;;;;;;;18.98;4.22;;;;;;;;;;6184647;23;20013;-88
2022/03/27 11:30:55;;;;;;;18.90;4.07;;;;;;;;;;6184750;23;20051;-88
2022/03/27 11:33:21;;;;;;;16.40;4.07;;;;;;;;;;6184669;23;20013;-87
2022/03/27 11:36:09;;;;;;;18.23;4.15;;;;;;;;;;6158312;23;20021;-87
2022/03/27 11:38:50;;;;;;;15.32;3.40;;;;;;;;;;6184439;23;20020;-87
2022/03/27 11:41:22;;;;;;;13.77;2.72;;;;;;;;;;6158530;23;20156;-87
2022/03/27 11:43:51;;;;;;;12.25;3.05;;;;;;;;;;6184325;23;20017;-88
2022/03/27 11:46:25;;;;;;;15.80;2.53;;;;;;;;;;6158114;23;20013;-87
2022/03/27 11:48:58;;;;;;;16.02;3.00;;;;;;;;;;6182981;23;20076;-87
2022/03/27 11:51:24;;;;;;;17.38;4.28;;;;;;;;;;6186505;23;20013;-86
2022/03/27 11:53:52;;;;;;;12.27;3.45;;;;;;;;;;6185951;23;20486;-87
2022/03/27 11:56:18;;;;;;;14.13;3.50;;;;;;;;;;6160036;23;20024;-87
2022/03/27 11:59:01;;;;;;;17.77;3.72;;;;;;;;;;6159880;23;20028;-86
2022/03/27 12:01:27;;;;;;;18.63;3.78;;;;;;;;;;6160001;23;20442;-87
2022/03/27 12:03:57;;;;;;;15.88;3.90;;;;;;;;;;6159672;23;20098;-86
2022/03/27 12:06:27;;;;;;;17.73;4.00;;;;;;;;;;6186695;23;20335;-87
2022/03/27 12:08:53;;;;;;;14.13;3.47;;;;;;;;;;6159750;23;20013;-87
2022/03/27 12:11:23;;;;;;;17.85;3.10;;;;;;;;;;6159944;23;20024;-87
2022/03/27 12:13:49;;;;;;;13.85;3.35;;;;;;;;;;6159607;23;20009;-87
2022/03/27 12:16:23;;;;;;;14.23;3.10;;;;;;;;;;6159917;23;20024;-87
2022/03/27 12:18:49;;;;;;;14.63;3.05;;;;;;;;;;6159913;23;20017;-87
2022/03/27 12:21:20;;;;;;;15.82;3.63;;;;;;;;;;6159925;23;20027;-87
2022/03/27 12:23:49;;;;;;;17.60;3.75;;;;;;;;;;6159986;23;20337;-87
2022/03/27 12:31:53;;;;;;;14.32;3.42;;;;;;;;;;6162651;23;19912;-86
2022/03/27 12:34:20;;;;;;;22.65;3.90;;;;;;;;;;6185950;23;20020;-88
2022/03/27 12:37:15;;;;;;;14.05;3.22;;;;;;;;;;6186328;23;20077;-87
2022/03/27 12:39:47;;;;;;;18.30;3.03;;;;;;;;;;6184673;23;20044;-87
2022/03/27 12:42:34;;;;;;;14.82;3.85;;;;;;;;;;6158237;23;20088;-88
2022/03/27 12:45:07;;;;;;;16.42;3.83;;;;;;;;;;6185662;23;20017;-88
2022/03/27 12:47:41;;;;;;;15.27;3.03;;;;;;;;;;6159557;23;20021;-87
2022/03/27 12:50:08;;;;;;;18.45;3.38;;;;;;;;;;6186110;23;20013;-86
2022/03/27 12:52:35;;;;;;;13.55;3.03;;;;;;;;;;6159312;23;20426;-87
2022/03/27 12:55:05;;;;;;;12.27;2.80;;;;;;;;;;6159421;23;20021;-87
2022/03/27 12:57:50;;;;;;;15.73;2.72;;;;;;;;;;6159392;23;20096;-87
2022/03/27 13:00:17;;;;;;;18.63;3.60;;;;;;;;;;6159033;23;20017;-86
2022/03/27 13:02:43;;;;;;;14.98;2.97;;;;;;;;;;6159479;23;20096;-86
2022/03/27 13:05:09;;;;;;;14.18;2.95;;;;;;;;;;6157932;23;20112;-87
2022/03/27 13:07:54;;;;;;;14.55;3.03;;;;;;;;;;6159326;23;20013;-87
2022/03/27 13:10:20;;;;;;;19.55;4.05;;;;;;;;;;6184695;23;20094;-88
2022/03/27 13:12:46;;;;;;;17.70;3.67;;;;;;;;;;6159327;23;20347;-87
2022/03/27 13:15:12;;;;;;;15.65;3.65;;;;;;;;;;6133600;23;20017;-87
2022/03/27 13:17:38;;;;;;;18.48;3.90;;;;;;;;;;6185972;23;20013;-86
2022/03/27 13:20:05;;;;;;;16.73;4.07;;;;;;;;;;6158250;23;20021;-86
2022/03/27 13:22:31;;;;;;;23.58;3.97;;;;;;;;;;6159282;23;20020;-87
2022/03/27 13:24:57;;;;;;;14.90;3.40;;;;;;;;;;6185559;23;20013;-87
2022/03/27 13:27:23;;;;;;;18.95;4.05;;;;;;;;;;6159254;23;20044;-87
2022/03/27 13:29:49;;;;;;;21.02;4.47;;;;;;;;;;6157649;23;20404;-85
2022/03/27 13:32:15;;;;;;;21.90;4.90;;;;;;;;;;6185405;23;20295;-86
2022/03/27 13:34:41;;;;;;;17.33;4.47;;;;;;;;;;6158724;23;20013;-88
2022/03/27 13:37:07;;;;;;;23.13;4.35;;;;;;;;;;6159395;23;20013;-88
2022/03/27 13:39:33;;;;;;;22.65;4.93;;;;;;;;;;6159728;23;20342;-89
2022/03/27 13:44:44;;;;;;;24.58;5.28;;;;;;;;;;6185527;23;20021;-88
2022/03/27 13:47:11;;;;;;;23.73;4.93;;;;;;;;;;6158955;23;20056;-87
2022/03/27 13:49:37;;;;;;;23.00;5.25;;;;;;;;;;6159116;23;20438;-86
2022/03/27 13:52:03;;;;;;;20.52;5.03;;;;;;;;;;6158642;23;20017;-87
2022/03/27 13:54:29;;;;;;;20.20;4.57;;;;;;;;;;6158748;23;20048;-87
2022/03/27 13:56:55;;;;;;;20.45;4.53;;;;;;;;;;6185385;23;20338;-87
2022/03/27 13:59:23;;;;;;;29.02;4.85;;;;;;;;;;6157665;23;20013;-86
2022/03/27 14:01:49;;;;;;;27.40;5.38;;;;;;;;;;6185320;23;20024;-87
2022/03/27 14:04:16;;;;;;;19.42;4.65;;;;;;;;;;6158106;23;20028;-87
2022/03/27 14:06:43;;;;;;;17.88;4.18;;;;;;;;;;6158489;23;20096;-87
2022/03/27 14:09:10;;;;;;;20.70;4.93;;;;;;;;;;6185311;23;20346;-91
2022/03/27 14:11:36;;;;;;;21.38;4.80;;;;;;;;;;6185327;23;20080;-88
2022/03/27 14:14:03;;;;;;;20.25;4.30;;;;;;;;;;6157900;23;20021;-87
2022/03/27 14:16:29;;;;;;;19.85;4.57;;;;;;;;;;6158306;23;20108;-87
2022/03/27 14:18:55;;;;;;;21.42;4.50;;;;;;;;;;6184519;23;20410;-88
2022/03/27 14:21:21;;;;;;;17.15;4.50;;;;;;;;;;6184682;23;20479;-87
2022/03/27 14:23:47;;;;;;;17.65;4.03;;;;;;;;;;6158799;23;20044;-88
2022/03/27 14:26:13;;;;;;;16.75;4.38;;;;;;;;;;6158380;23;20067;-87
2022/03/27 14:28:39;;;;;;;21.15;4.25;;;;;;;;;;6158779;23;20019;-87
2022/03/27 14:31:05;;;;;;;21.05;4.57;;;;;;;;;;6158576;23;20059;-87
2022/03/27 14:33:32;;;;;;;19.48;4.13;;;;;;;;;;6158567;23;20444;-87
2022/03/27 14:35:58;;;;;;;22.70;4.70;;;;;;;;;;6158245;23;20091;-87
2022/03/27 14:38:24;;;;;;;17.33;3.83;;;;;;;;;;6158670;23;20079;-87
2022/03/27 14:40:50;;;;;;;22.00;4.85;;;;;;;;;;6157633;23;20402;-87
2022/03/27 14:43:17;;;;;;;20.58;4.10;;;;;;;;;;6158629;23;20013;-87
2022/03/27 14:45:43;;;;;;;21.20;5.00;;;;;;;;;;6158119;23;20035;-86
2022/03/27 14:48:09;;;;;;;22.17;5.65;;;;;;;;;;6185232;23;20017;-87
2022/03/27 14:50:35;;;;;;;17.45;4.57;;;;;;;;;;6183408;23;20389;-87
2022/03/27 14:53:02;;;;;;;21.25;4.25;;;;;;;;;;6158000;23;20024;-87